createdAt,value
2022-10-28T00:00:07.822Z,20.84
2022-10-28T00:02:34.256Z,20.62
2022-10-28T00:05:00.620Z,20.78
2022-10-28T00:07:28.689Z,20.73
2022-10-28T00:09:55.004Z,20.51
2022-10-28T00:12:21.343Z,20.66
2022-10-28T00:14:47.893Z,20.48
2022-10-28T00:17:14.549Z,20.32
2022-10-28T00:19:41.058Z,20.50
2022-10-28T00:22:07.506Z,20.36
2022-10-28T00:24:33.889Z,20.45
2022-10-28T00:27:00.202Z,20.26
2022-10-28T00:29:26.540Z,20.23
2022-10-28T00:31:52.859Z,20.25
2022-10-28T00:34:21.255Z,20.27
2022-10-28T00:36:49.216Z,20.30
2022-10-28T00:39:18.251Z,20.36
2022-10-28T00:41:47.732Z,20.37
2022-10-28T00:44:48.347Z,20.36
2022-10-28T00:47:43.428Z,20.34
2022-10-28T00:50:09.614Z,20.38
2022-10-28T00:52:36.146Z,20.06
2022-10-28T00:55:03.591Z,19.99
2022-10-28T00:57:36.689Z,20.16
2022-10-28T01:00:05.933Z,20.24
2022-10-28T01:02:39.351Z,20.18
2022-10-28T01:05:06.180Z,19.93
2022-10-28T01:07:32.643Z,19.93
2022-10-28T01:09:59.040Z,19.85
2022-10-28T01:12:28.671Z,19.96
2022-10-28T01:15:27.603Z,19.87
2022-10-28T01:18:16.271Z,19.82
2022-10-28T01:21:01.420Z,19.87
2022-10-28T01:24:07.359Z,19.80
2022-10-28T01:26:56.332Z,19.73
2022-10-28T01:29:47.795Z,19.50
2022-10-28T01:32:48.041Z,19.59
2022-10-28T01:35:36.176Z,19.53
2022-10-28T01:38:08.494Z,19.50
2022-10-28T01:40:40.919Z,19.50
2022-10-28T01:43:20.208Z,19.50
2022-10-28T01:46:16.418Z,19.28
2022-10-28T01:48:42.670Z,19.34
2022-10-28T01:51:19.411Z,19.12
2022-10-28T01:53:49.678Z,19.20
2022-10-28T01:56:20.750Z,19.19
2022-10-28T01:58:48.282Z,18.98
2022-10-28T02:01:16.432Z,19.08
2022-10-28T02:03:42.874Z,19.21
2022-10-28T02:06:17.621Z,18.93
2022-10-28T02:08:55.497Z,19.20
2022-10-28T02:11:21.847Z,19.24
2022-10-28T02:13:54.274Z,19.18
2022-10-28T02:16:42.979Z,19.09
2022-10-28T02:19:25.679Z,19.23
2022-10-28T02:22:01.361Z,19.25
2022-10-28T02:24:43.494Z,19.26
2022-10-28T02:27:21.712Z,19.15
2022-10-28T02:30:00.486Z,19.17
2022-10-28T02:32:30.453Z,19.04
2022-10-28T02:34:59.102Z,19.24
2022-10-28T02:37:31.072Z,18.85
2022-10-28T02:40:01.098Z,19.16
2022-10-28T02:42:35.933Z,18.85
2022-10-28T02:45:13.442Z,18.88
2022-10-28T02:47:49.454Z,18.85
2022-10-28T02:50:20.362Z,18.68
2022-10-28T02:52:51.363Z,18.94
2022-10-28T02:55:21.211Z,18.79
2022-10-28T02:57:49.180Z,18.87
2022-10-28T03:00:18.862Z,19.00
2022-10-28T03:02:45.211Z,18.90
2022-10-28T03:05:11.866Z,19.07
2022-10-28T03:07:38.217Z,19.03
2022-10-28T03:10:04.900Z,18.83
2022-10-28T03:12:31.258Z,18.80
2022-10-28T03:14:57.640Z,18.68
2022-10-28T03:17:24.086Z,18.54
2022-10-28T03:19:50.405Z,18.50
2022-10-28T03:22:16.728Z,18.75
2022-10-28T03:24:43.013Z,18.63
2022-10-28T03:27:09.371Z,18.77
2022-10-28T03:29:35.677Z,18.62
2022-10-28T03:32:02.147Z,18.92
2022-10-28T03:34:28.722Z,18.76
2022-10-28T03:36:55.086Z,18.65
2022-10-28T03:39:21.480Z,18.83
2022-10-28T03:41:47.852Z,18.57
2022-10-28T03:44:14.231Z,18.52
2022-10-28T03:46:40.558Z,18.71
2022-10-28T03:49:07.013Z,18.64
2022-10-28T03:51:33.375Z,18.47
2022-10-28T03:53:59.698Z,18.51
2022-10-28T03:56:26.120Z,18.45
2022-10-28T04:01:23.867Z,18.31
2022-10-28T04:03:50.308Z,18.09
2022-10-28T04:06:17.107Z,18.18
2022-10-28T04:08:43.445Z,18.17
2022-10-28T04:11:09.909Z,18.18
2022-10-28T04:13:36.259Z,18.22
2022-10-28T04:16:02.654Z,18.32
2022-10-28T04:18:29.010Z,18.20
2022-10-28T04:20:55.379Z,18.22
2022-10-28T04:23:21.746Z,18.08
2022-10-28T04:25:52.113Z,18.21
2022-10-28T04:28:18.514Z,17.81
2022-10-28T04:30:47.461Z,18.37
2022-10-28T04:33:13.836Z,18.45
2022-10-28T04:35:42.737Z,18.20
2022-10-28T04:38:10.633Z,18.52
2022-10-28T04:40:37.289Z,18.43
2022-10-28T04:43:04.859Z,18.46
2022-10-28T04:45:33.944Z,18.44
2022-10-28T04:48:01.375Z,18.37
2022-10-28T04:50:28.094Z,18.23
2022-10-28T04:52:54.679Z,18.31
2022-10-28T04:55:21.663Z,18.28
2022-10-28T04:57:59.105Z,18.48
2022-10-28T05:00:27.460Z,18.35
2022-10-28T05:02:54.415Z,18.35
2022-10-28T05:05:21.440Z,18.38
2022-10-28T05:07:48.038Z,18.26
2022-10-28T05:10:18.097Z,18.43
2022-10-28T05:12:45.788Z,18.42
2022-10-28T05:15:13.751Z,18.40
2022-10-28T05:17:42.691Z,18.42
2022-10-28T05:20:10.269Z,18.33
2022-10-28T05:22:36.659Z,18.16
2022-10-28T05:25:03.716Z,18.28
2022-10-28T05:27:30.117Z,18.00
2022-10-28T05:29:56.487Z,18.11
2022-10-28T05:32:22.812Z,18.16
2022-10-28T05:34:49.131Z,17.55
2022-10-28T05:37:15.426Z,17.77
2022-10-28T05:39:41.790Z,18.00
2022-10-28T05:42:08.093Z,18.19
2022-10-28T05:44:34.446Z,17.77
2022-10-28T05:47:00.751Z,18.27
2022-10-28T05:49:27.052Z,17.93
2022-10-28T05:51:53.383Z,18.07
2022-10-28T05:54:19.687Z,17.53
2022-10-28T05:56:46.003Z,18.19
2022-10-28T05:59:12.315Z,18.08
2022-10-28T06:01:39.470Z,18.10
2022-10-28T06:04:06.663Z,18.07
2022-10-28T06:06:33.047Z,18.17
2022-10-28T06:08:59.353Z,18.22
2022-10-28T06:11:24.366Z,18.18
2022-10-28T06:13:50.677Z,18.33
2022-10-28T06:16:17.006Z,18.01
2022-10-28T06:18:43.338Z,18.30
2022-10-28T06:21:09.774Z,18.25
2022-10-28T06:23:36.219Z,18.34
2022-10-28T06:26:03.466Z,18.46
2022-10-28T06:28:30.554Z,18.52
2022-10-28T06:31:03.885Z,18.23
2022-10-28T06:33:31.586Z,18.48
2022-10-28T06:35:58.873Z,18.47
2022-10-28T06:38:26.925Z,18.33
2022-10-28T06:40:55.984Z,17.81
2022-10-28T06:43:22.290Z,18.25
2022-10-28T06:45:53.546Z,18.21
2022-10-28T06:48:21.365Z,18.15
2022-10-28T06:50:47.743Z,18.52
2022-10-28T06:53:14.204Z,17.90
2022-10-28T06:55:40.535Z,18.20
2022-10-28T06:58:06.862Z,18.11
2022-10-28T07:00:33.639Z,18.55
2022-10-28T07:03:00.557Z,18.33
2022-10-28T07:05:27.851Z,18.53
2022-10-28T07:07:54.464Z,18.41
2022-10-28T07:10:21.058Z,18.52
2022-10-28T07:12:47.552Z,18.57
2022-10-28T07:15:13.949Z,18.64
2022-10-28T07:17:40.355Z,18.53
2022-10-28T07:20:07.324Z,18.59
2022-10-28T07:22:33.635Z,18.77
2022-10-28T07:24:59.964Z,18.64
2022-10-28T07:27:26.374Z,18.74
2022-10-28T07:29:52.696Z,18.78
2022-10-28T07:32:19.058Z,18.94
2022-10-28T07:34:45.436Z,18.94
2022-10-28T07:37:12.858Z,18.97
2022-10-28T07:39:39.373Z,19.06
2022-10-28T07:42:05.813Z,19.34
2022-10-28T07:44:32.140Z,19.30
2022-10-28T07:46:58.573Z,19.37
2022-10-28T07:49:25.181Z,19.14
2022-10-28T07:51:51.690Z,19.23
2022-10-28T07:54:18.006Z,19.35
2022-10-28T07:56:44.408Z,19.33
2022-10-28T07:59:10.724Z,19.13
2022-10-28T08:01:37.236Z,19.37
2022-10-28T08:04:03.845Z,19.27
2022-10-28T08:06:30.344Z,19.09
2022-10-28T08:08:57.362Z,19.22
2022-10-28T08:11:24.267Z,19.42
2022-10-28T08:13:51.733Z,19.49
2022-10-28T08:16:18.504Z,19.73
2022-10-28T08:18:45.830Z,19.70
2022-10-28T08:21:13.856Z,19.83
2022-10-28T08:23:41.384Z,19.92
2022-10-28T08:26:08.290Z,20.00
2022-10-28T08:28:34.686Z,20.02
2022-10-28T08:31:10.123Z,20.11
2022-10-28T08:33:45.173Z,19.63
2022-10-28T08:36:13.880Z,20.08
2022-10-28T08:38:45.176Z,20.10
2022-10-28T08:41:28.581Z,20.31
2022-10-28T08:44:13.239Z,20.53
2022-10-28T08:46:51.695Z,20.57
2022-10-28T08:49:21.636Z,20.45
2022-10-28T08:51:56.655Z,20.61
2022-10-28T08:54:31.138Z,20.69
2022-10-28T08:57:00.406Z,20.80
2022-10-28T08:59:36.659Z,21.09
2022-10-28T09:02:22.359Z,21.07
2022-10-28T09:04:56.470Z,21.16
2022-10-28T09:07:25.302Z,21.29
2022-10-28T09:09:53.069Z,21.34
2022-10-28T09:12:58.831Z,21.39
2022-10-28T09:15:31.082Z,21.62
2022-10-28T09:18:13.028Z,21.54
2022-10-28T09:21:12.055Z,21.85
2022-10-28T09:23:58.914Z,21.84
2022-10-28T09:26:50.144Z,22.09
2022-10-28T09:29:30.932Z,22.19
2022-10-28T09:32:22.491Z,22.29
2022-10-28T09:34:56.316Z,22.22
2022-10-28T09:37:37.719Z,22.39
2022-10-28T09:40:25.813Z,22.17
2022-10-28T09:43:16.423Z,22.49
2022-10-28T09:45:46.407Z,22.33
2022-10-28T09:48:33.931Z,22.91
2022-10-28T09:51:00.935Z,22.98
2022-10-28T09:53:44.875Z,22.88
2022-10-28T09:56:11.501Z,22.99
2022-10-28T09:58:44.618Z,23.21
2022-10-28T10:01:11.033Z,23.07
2022-10-28T10:03:39.908Z,23.06
2022-10-28T10:06:15.523Z,23.35
2022-10-28T10:08:42.779Z,23.49
2022-10-28T10:11:29.769Z,23.74
2022-10-28T10:13:58.720Z,24.99
2022-10-28T10:16:41.150Z,25.44
2022-10-28T10:19:09.429Z,25.31
2022-10-28T10:21:54.178Z,25.30
2022-10-28T10:24:32.359Z,24.76
2022-10-28T10:27:10.581Z,24.78
2022-10-28T10:29:43.843Z,25.24
2022-10-28T10:32:26.434Z,25.46
2022-10-28T10:35:04.583Z,25.58
2022-10-28T10:37:34.704Z,25.51
2022-10-28T10:40:33.392Z,25.35
2022-10-28T10:43:18.117Z,26.11
2022-10-28T10:45:53.130Z,26.65
2022-10-28T10:48:19.454Z,26.94
2022-10-28T10:50:48.438Z,27.11
2022-10-28T10:53:27.243Z,27.65
2022-10-28T10:55:57.071Z,28.04
2022-10-28T10:58:26.556Z,28.58
2022-10-28T11:00:55.896Z,28.97
2022-10-28T11:03:48.151Z,29.24
2022-10-28T11:06:24.736Z,29.11
2022-10-28T11:08:57.642Z,28.66
2022-10-28T11:11:33.616Z,28.26
2022-10-28T11:14:30.441Z,27.96
2022-10-28T11:17:01.617Z,27.59
2022-10-28T11:19:30.202Z,27.47
2022-10-28T11:22:28.109Z,27.85
2022-10-28T11:25:22.746Z,28.49
2022-10-28T11:28:04.558Z,29.13
2022-10-28T11:30:43.400Z,29.53
2022-10-28T11:33:31.014Z,29.58
2022-10-28T11:36:00.184Z,30.28
2022-10-28T11:38:47.508Z,30.44
2022-10-28T11:41:29.369Z,30.54
2022-10-28T11:44:02.259Z,30.38
2022-10-28T11:47:02.438Z,29.83
2022-10-28T11:49:59.187Z,29.53
2022-10-28T11:52:34.721Z,29.17
2022-10-28T11:55:16.242Z,29.01
2022-10-28T11:57:57.800Z,29.09
2022-10-28T12:00:40.694Z,29.30
2022-10-28T12:03:22.359Z,28.77
2022-10-28T12:06:21.486Z,28.50
2022-10-28T12:08:59.982Z,28.17
2022-10-28T12:11:41.551Z,27.72
2022-10-28T12:14:38.711Z,27.36
2022-10-28T12:17:22.869Z,26.84
2022-10-28T12:19:58.227Z,27.02
2022-10-28T12:22:46.275Z,26.86
2022-10-28T12:25:24.397Z,26.70
2022-10-28T12:27:55.685Z,26.59
2022-10-28T12:30:27.162Z,26.66
2022-10-28T12:32:59.113Z,26.97
2022-10-28T12:35:30.578Z,27.04
2022-10-28T12:38:01.677Z,26.95
2022-10-28T12:40:43.450Z,26.92
2022-10-28T12:43:20.261Z,26.67
2022-10-28T12:45:48.886Z,27.06
2022-10-28T12:48:24.229Z,26.93
2022-10-28T12:50:59.053Z,27.19
2022-10-28T12:53:33.442Z,27.18
2022-10-28T12:56:01.718Z,27.27
2022-10-28T12:59:07.038Z,27.36
2022-10-28T13:01:34.655Z,27.19
2022-10-28T13:04:01.706Z,27.30
2022-10-28T13:06:59.068Z,27.45
2022-10-28T13:09:53.432Z,27.40
2022-10-28T13:12:47.052Z,27.41
2022-10-28T13:15:36.308Z,27.47
2022-10-28T13:18:14.524Z,27.38
2022-10-28T13:20:48.444Z,27.11
2022-10-28T13:23:46.753Z,27.02
2022-10-28T13:26:27.392Z,26.85
2022-10-28T13:28:57.549Z,26.70
2022-10-28T13:31:41.409Z,26.87
2022-10-28T13:34:09.290Z,26.82
2022-10-28T13:36:38.681Z,26.92
2022-10-28T13:39:21.013Z,26.95
2022-10-28T13:41:48.924Z,26.54
2022-10-28T13:44:18.486Z,26.68
2022-10-28T13:46:57.080Z,26.83
2022-10-28T13:49:31.615Z,26.63
2022-10-28T13:52:03.961Z,26.61
2022-10-28T13:54:43.329Z,26.59
2022-10-28T13:57:35.653Z,26.62
2022-10-28T14:00:06.938Z,26.62
2022-10-28T14:02:47.953Z,26.45
2022-10-28T14:05:17.505Z,26.25
2022-10-28T14:07:58.966Z,26.22
2022-10-28T14:10:34.098Z,26.18
2022-10-28T14:13:20.089Z,26.07
2022-10-28T14:15:50.655Z,26.17
2022-10-28T14:21:03.864Z,26.27
2022-10-28T14:23:30.860Z,26.40
2022-10-28T14:26:04.720Z,26.33
2022-10-28T14:28:31.027Z,26.49
2022-10-28T14:31:12.540Z,26.44
2022-10-28T14:33:51.182Z,26.27
2022-10-28T14:36:26.258Z,26.34
2022-10-28T14:39:31.162Z,25.94
2022-10-28T14:42:27.073Z,26.12
2022-10-28T14:44:56.451Z,25.98
2022-10-28T14:47:29.703Z,25.84
2022-10-28T14:50:01.802Z,25.88
2022-10-28T14:52:30.717Z,25.88
2022-10-28T14:55:05.230Z,25.53
2022-10-28T14:57:34.427Z,25.65
2022-10-28T15:00:06.187Z,25.70
2022-10-28T15:02:36.163Z,25.52
2022-10-28T15:05:17.198Z,25.54
2022-10-28T15:07:44.029Z,25.52
2022-10-28T15:10:27.217Z,25.55
2022-10-28T15:12:55.688Z,25.61
2022-10-28T15:15:25.588Z,25.41
2022-10-28T15:17:52.562Z,25.30
2022-10-28T15:20:28.273Z,25.19
2022-10-28T15:23:12.242Z,25.20
2022-10-28T15:25:38.581Z,25.23
2022-10-28T15:28:05.372Z,24.86
2022-10-28T15:30:31.848Z,25.13
2022-10-28T15:33:19.478Z,25.04
2022-10-28T15:35:47.120Z,25.15
2022-10-28T15:38:28.727Z,25.24
2022-10-28T15:40:55.637Z,25.11
2022-10-28T15:43:27.586Z,25.22
2022-10-28T15:45:54.228Z,24.96
2022-10-28T15:48:26.437Z,25.03
2022-10-28T15:51:14.105Z,24.96
2022-10-28T15:53:42.536Z,24.87
2022-10-28T15:56:14.625Z,24.76
2022-10-28T15:58:43.213Z,24.42
2022-10-28T16:01:27.717Z,24.77
2022-10-28T16:03:54.055Z,24.76
2022-10-28T16:06:27.108Z,24.64
2022-10-28T16:09:14.669Z,24.60
2022-10-28T16:11:46.537Z,24.37
2022-10-28T16:14:34.304Z,24.56
2022-10-28T16:17:23.691Z,24.44
2022-10-28T16:20:04.442Z,24.46
2022-10-28T16:22:34.144Z,24.08
2022-10-28T16:25:00.636Z,24.00
2022-10-28T16:27:30.491Z,24.03
2022-10-28T16:29:57.519Z,24.21
2022-10-28T16:32:33.925Z,23.95
2022-10-28T16:35:02.000Z,23.98
2022-10-28T16:37:31.428Z,24.02
2022-10-28T16:39:57.790Z,23.92
2022-10-28T16:42:24.717Z,23.94
2022-10-28T16:44:51.512Z,23.91
2022-10-28T16:47:20.293Z,23.74
2022-10-28T16:49:52.530Z,23.68
2022-10-28T16:52:24.945Z,23.75
2022-10-28T16:54:51.662Z,23.49
2022-10-28T16:57:19.857Z,23.34
2022-10-28T16:59:46.921Z,23.31
2022-10-28T17:02:25.649Z,23.47
2022-10-28T17:04:52.059Z,23.39
2022-10-28T17:07:18.577Z,23.28
2022-10-28T17:09:45.023Z,23.48
2022-10-28T17:12:17.238Z,23.21
2022-10-28T17:14:43.857Z,23.23
2022-10-28T17:17:10.695Z,23.27
2022-10-28T17:19:38.200Z,23.14
2022-10-28T17:22:09.025Z,23.31
2022-10-28T17:24:35.505Z,23.18
2022-10-28T17:27:01.928Z,23.22
2022-10-28T17:29:28.308Z,23.07
2022-10-28T17:31:54.648Z,23.14
2022-10-28T17:34:20.997Z,22.88
2022-10-28T17:36:47.302Z,22.94
2022-10-28T17:39:18.584Z,22.62
2022-10-28T17:41:47.158Z,22.76
2022-10-28T17:44:13.467Z,22.72
2022-10-28T17:46:39.840Z,22.43
2022-10-28T17:49:08.474Z,22.56
2022-10-28T17:51:35.681Z,22.47
2022-10-28T17:54:02.014Z,22.49
2022-10-28T17:56:28.380Z,22.63
2022-10-28T17:58:54.763Z,22.64
2022-10-28T18:01:21.227Z,22.76
2022-10-28T18:03:50.899Z,22.79
2022-10-28T18:06:17.273Z,22.75
2022-10-28T18:08:44.363Z,22.87
2022-10-28T18:11:13.253Z,22.86
2022-10-28T18:13:42.379Z,22.95
2022-10-28T18:16:11.860Z,22.72
2022-10-28T18:18:42.173Z,22.67
2022-10-28T18:21:10.350Z,22.78
2022-10-28T18:23:36.746Z,22.68
2022-10-28T18:26:06.070Z,22.45
2022-10-28T18:28:35.413Z,22.48
2022-10-28T18:31:02.924Z,22.30
2022-10-28T18:33:30.093Z,22.34
2022-10-28T18:36:00.675Z,22.38
2022-10-28T18:38:27.052Z,22.27
2022-10-28T18:40:53.629Z,22.52
2022-10-28T18:43:21.579Z,22.33
2022-10-28T18:45:48.417Z,22.23
2022-10-28T18:48:14.970Z,22.21
2022-10-28T18:50:43.557Z,22.01
2022-10-28T18:53:13.286Z,22.18
2022-10-28T18:55:39.603Z,22.11
2022-10-28T18:58:05.950Z,22.06
2022-10-28T19:00:34.853Z,22.21
2022-10-28T19:03:01.154Z,22.22
2022-10-28T19:05:27.528Z,22.11
2022-10-28T19:07:54.045Z,21.82
2022-10-28T19:10:26.377Z,22.24
2022-10-28T19:12:57.603Z,22.25
2022-10-28T19:15:23.910Z,22.24
2022-10-28T19:17:52.541Z,22.33
2022-10-28T19:20:19.513Z,22.29
2022-10-28T19:22:45.903Z,22.33
2022-10-28T19:25:12.541Z,22.25
2022-10-28T19:27:38.865Z,22.46
2022-10-28T19:30:09.149Z,22.15
2022-10-28T19:32:39.135Z,22.42
2022-10-28T19:35:05.948Z,22.29
2022-10-28T19:37:32.251Z,22.38
2022-10-28T19:39:58.574Z,22.17
2022-10-28T19:42:25.576Z,22.12
2022-10-28T19:44:51.898Z,22.06
2022-10-28T19:47:18.199Z,22.22
2022-10-28T19:49:44.631Z,22.39
2022-10-28T19:52:11.016Z,22.24
2022-10-28T19:54:37.329Z,22.17
2022-10-28T19:57:03.778Z,22.35
2022-10-28T19:59:30.169Z,22.21
2022-10-28T20:01:56.605Z,22.39
2022-10-28T20:04:22.978Z,22.15
2022-10-28T20:06:49.326Z,22.06
2022-10-28T20:09:15.659Z,22.11
2022-10-28T20:11:42.030Z,22.09
2022-10-28T20:14:11.472Z,22.16
2022-10-28T20:16:39.997Z,22.07
2022-10-28T20:19:06.297Z,21.92
2022-10-28T20:21:33.837Z,22.10
2022-10-28T20:24:00.990Z,22.21
2022-10-28T20:26:29.684Z,22.07
2022-10-28T20:28:57.097Z,22.25
2022-10-28T20:31:29.057Z,22.23
2022-10-28T20:34:01.429Z,22.10
2022-10-28T20:36:28.931Z,22.22
2022-10-28T20:39:00.078Z,22.21
2022-10-28T20:41:29.348Z,22.05
2022-10-28T20:43:56.026Z,22.08
2022-10-28T20:46:24.049Z,21.94
2022-10-28T20:48:51.719Z,22.12
2022-10-28T20:51:18.023Z,22.10
2022-10-28T20:53:44.390Z,22.02
2022-10-28T20:56:25.486Z,22.21
2022-10-28T20:58:52.753Z,21.96
2022-10-28T21:01:21.994Z,22.19
2022-10-28T21:03:49.403Z,21.95
2022-10-28T21:06:16.876Z,22.13
2022-10-28T21:08:43.594Z,22.02
2022-10-28T21:11:12.600Z,22.06
2022-10-28T21:13:39.787Z,21.83
2022-10-28T21:16:08.029Z,22.08
2022-10-28T21:18:36.579Z,21.98
2022-10-28T21:21:03.542Z,21.89
2022-10-28T21:23:30.417Z,21.92
2022-10-28T21:26:00.509Z,22.04
2022-10-28T21:28:28.624Z,21.62
2022-10-28T21:31:02.737Z,22.01
2022-10-28T21:33:29.781Z,21.91
2022-10-28T21:36:01.669Z,21.99
2022-10-28T21:38:29.275Z,22.00
2022-10-28T21:41:06.003Z,21.90
2022-10-28T21:43:35.666Z,22.00
2022-10-28T21:46:02.627Z,21.86
2022-10-28T21:48:30.018Z,21.80
2022-10-28T21:50:59.316Z,21.87
2022-10-28T21:53:26.627Z,21.90
2022-10-28T21:55:54.858Z,21.54
2022-10-28T21:58:21.872Z,21.64
2022-10-28T22:00:48.348Z,21.67
2022-10-28T22:03:15.105Z,21.60
2022-10-28T22:05:49.690Z,21.79
2022-10-28T22:08:16.698Z,21.80
2022-10-28T22:10:43.255Z,21.66
2022-10-28T22:13:09.608Z,21.67
2022-10-28T22:15:36.016Z,21.58
2022-10-28T22:18:02.359Z,21.62
2022-10-28T22:20:28.879Z,21.39
2022-10-28T22:22:55.570Z,21.44
2022-10-28T22:25:22.112Z,21.41
2022-10-28T22:27:48.419Z,21.34
2022-10-28T22:30:15.258Z,21.34
2022-10-28T22:32:41.623Z,21.30
2022-10-28T22:35:08.240Z,21.13
2022-10-28T22:37:34.592Z,21.13
2022-10-28T22:40:00.902Z,21.12
2022-10-28T22:42:27.264Z,20.99
2022-10-28T22:44:53.573Z,20.92
2022-10-28T22:47:19.867Z,20.99
2022-10-28T22:49:46.170Z,20.98
2022-10-28T22:52:12.564Z,20.79
2022-10-28T22:54:38.936Z,20.75
2022-10-28T22:57:05.293Z,20.76
2022-10-28T22:59:31.654Z,20.66
2022-10-28T23:01:58.150Z,20.67
2022-10-28T23:04:24.616Z,20.79
2022-10-28T23:06:50.939Z,20.73
2022-10-28T23:09:17.264Z,20.92
2022-10-28T23:11:43.612Z,20.76
2022-10-28T23:14:09.961Z,20.86
2022-10-28T23:16:36.272Z,21.00
2022-10-28T23:19:02.641Z,20.75
2022-10-28T23:21:28.971Z,20.97
2022-10-28T23:24:00.334Z,20.88
2022-10-28T23:26:29.120Z,20.99
2022-10-28T23:28:57.668Z,21.12
2022-10-28T23:31:28.194Z,21.11
2022-10-28T23:33:55.014Z,21.11
2022-10-28T23:36:21.894Z,21.09
2022-10-28T23:38:48.212Z,20.89
2022-10-28T23:41:18.503Z,21.14
2022-10-28T23:43:45.677Z,21.12
2022-10-28T23:46:12.212Z,21.12
2022-10-28T23:48:38.570Z,20.84
2022-10-28T23:51:05.383Z,20.97
2022-10-28T23:53:31.948Z,20.82
2022-10-28T23:55:58.579Z,20.92
2022-10-28T23:58:25.008Z,20.77
